Time;durP1;ratioP1;P1;durP2;ratioP2;P2;SDS_P1;SDS_P2;PMS_P1;PMS_P2;Temp;Humidity;BMP_temperature;BMP_pressure;BME280_temperature;BME280_humidity;BME280_pressure;Samples;Min_cycle;Max_cycle;Signal;HPM_P1;HPM_P2
2023/07/13 00:01:30;;;;;;;10.30;6.00;;;28.20;53.30;;;;;;5113891;28;20168;-74
2023/07/13 00:03:59;;;;;;;9.50;5.40;;;28.30;53.30;;;;;;5113269;28;20023;-74
2023/07/13 00:06:28;;;;;;;7.72;5.65;;;28.20;53.30;;;;;;5113749;28;20416;-74
2023/07/13 00:08:54;;;;;;;7.47;5.40;;;28.20;53.30;;;;;;5113436;28;20027;-74
2023/07/13 00:11:20;;;;;;;9.70;5.45;;;28.20;53.30;;;;;;5112354;28;20648;-74
2023/07/13 00:13:46;;;;;;;8.38;5.07;;;28.30;53.30;;;;;;5113646;28;20058;-74
2023/07/13 00:16:13;;;;;;;10.80;5.97;;;28.20;53.30;;;;;;5113011;28;20034;-74
2023/07/13 00:18:40;;;;;;;7.80;5.55;;;28.10;53.30;;;;;;5095260;28;20050;-73
2023/07/13 00:21:06;;;;;;;8.13;5.85;;;28.30;53.40;;;;;;5111978;28;20032;-74
2023/07/13 00:23:37;;;;;;;9.98;5.72;;;28.20;53.40;;;;;;5112432;28;20028;-74
2023/07/13 00:26:05;;;;;;;7.53;6.00;;;28.20;53.40;;;;;;5113005;28;20629;-74
2023/07/13 00:28:31;;;;;;;8.30;5.95;;;28.20;53.40;;;;;;5112896;28;20063;-74
2023/07/13 00:30:57;;;;;;;6.32;5.35;;;28.10;53.50;;;;;;5112452;28;20543;-74
2023/07/13 00:33:24;;;;;;;7.40;5.80;;;28.10;53.50;;;;;;5111846;28;20532;-73
2023/07/13 00:35:50;;;;;;;8.25;5.95;;;28.20;53.60;;;;;;5113148;28;20043;-74
2023/07/13 00:38:16;;;;;;;7.68;6.00;;;28.20;53.60;;;;;;5111777;28;20081;-74
2023/07/13 00:40:42;;;;;;;10.15;5.88;;;28.10;53.50;;;;;;5111748;28;20024;-74
2023/07/13 00:43:15;;;;;;;8.68;5.88;;;28.10;53.50;;;;;;5112714;28;20387;-74
2023/07/13 00:45:44;;;;;;;9.15;5.60;;;28.20;53.60;;;;;;5112691;28;20051;-74
2023/07/13 00:48:14;;;;;;;6.95;5.82;;;28.20;53.60;;;;;;5113015;28;20036;-74
2023/07/13 00:50:41;;;;;;;6.65;5.68;;;28.20;53.60;;;;;;5111588;28;20119;-74
2023/07/13 00:53:08;;;;;;;6.93;5.40;;;28.20;53.60;;;;;;5112504;28;20412;-74
2023/07/13 00:55:35;;;;;;;8.70;5.55;;;28.20;53.60;;;;;;5112378;28;20461;-74
2023/07/13 00:58:02;;;;;;;6.25;5.63;;;28.20;53.60;;;;;;5112795;28;20035;-74
2023/07/13 01:00:29;;;;;;;6.78;5.45;;;28.20;53.60;;;;;;5094570;28;20424;-74
2023/07/13 01:02:56;;;;;;;6.72;5.97;;;28.20;53.60;;;;;;5112692;28;20039;-74
2023/07/13 01:05:24;;;;;;;7.97;5.55;;;28.20;53.70;;;;;;5112187;28;20375;-74
2023/07/13 01:07:51;;;;;;;7.07;5.47;;;28.20;53.60;;;;;;5094179;28;20156;-74
2023/07/13 01:10:22;;;;;;;9.63;5.63;;;28.20;53.60;;;;;;5110967;28;20036;-74
2023/07/13 01:12:48;;;;;;;9.45;5.97;;;28.20;53.60;;;;;;5111159;28;20514;-74
2023/07/13 01:15:54;;;;;;;7.18;5.53;;;28.10;53.60;;;;;;5112169;28;20032;-74
2023/07/13 01:18:24;;;;;;;8.10;5.75;;;28.10;53.70;;;;;;5028952;28;20045;-73
2023/07/13 01:21:01;;;;;;;7.40;6.35;;;28.10;53.70;;;;;;5029333;28;20209;-74
2023/07/13 01:23:29;;;;;;;7.70;5.53;;;28.00;53.70;;;;;;5029301;28;20098;-74
2023/07/13 01:25:56;;;;;;;8.57;5.15;;;28.00;53.80;;;;;;5028955;28;20413;-74
2023/07/13 01:28:26;;;;;;;11.93;6.13;;;28.10;53.80;;;;;;5012837;28;20124;-74
2023/07/13 01:30:54;;;;;;;9.90;6.00;;;28.10;53.90;;;;;;5029125;28;20037;-74
2023/07/13 01:33:20;;;;;;;7.43;5.55;;;28.10;53.90;;;;;;5029195;28;20048;-74
2023/07/13 01:35:46;;;;;;;9.85;6.30;;;28.10;53.90;;;;;;5028389;28;20037;-74
2023/07/13 01:38:19;;;;;;;9.70;6.28;;;28.10;54.00;;;;;;5028937;28;20068;-74
2023/07/13 01:40:45;;;;;;;11.73;6.13;;;28.10;54.00;;;;;;5028815;28;20533;-74
2023/07/13 01:43:11;;;;;;;8.70;5.45;;;28.10;54.00;;;;;;5028428;28;20061;-74
2023/07/13 01:45:37;;;;;;;6.30;5.45;;;28.10;54.00;;;;;;5028095;28;20533;-74
2023/07/13 01:48:06;;;;;;;7.47;5.60;;;28.10;54.10;;;;;;5032251;28;20095;-74
2023/07/13 01:50:33;;;;;;;8.38;5.65;;;28.10;54.10;;;;;;5052382;28;20420;-74
2023/07/13 01:52:59;;;;;;;8.23;5.88;;;28.10;54.10;;;;;;5069515;28;20038;-74
2023/07/13 01:55:25;;;;;;;6.45;5.53;;;28.00;54.10;;;;;;5067472;28;20502;-74
2023/07/13 01:57:51;;;;;;;7.60;5.15;;;28.20;54.10;;;;;;5093815;28;20028;-74
2023/07/13 02:00:18;;;;;;;6.78;5.47;;;28.10;54.10;;;;;;5110489;28;20039;-74
2023/07/13 02:02:47;;;;;;;7.22;5.32;;;28.10;54.10;;;;;;5110724;28;20032;-74
2023/07/13 02:05:14;;;;;;;7.50;4.85;;;28.10;54.00;;;;;;5110289;28;20115;-74
2023/07/13 02:07:41;;;;;;;5.50;4.78;;;28.10;54.10;;;;;;5111806;28;20055;-74
2023/07/13 02:10:09;;;;;;;5.18;4.68;;;28.00;54.10;;;;;;5111905;28;20607;-74
2023/07/13 02:12:35;;;;;;;8.40;4.80;;;28.10;54.10;;;;;;5110424;28;20023;-74
2023/07/13 02:15:03;;;;;;;6.45;4.40;;;28.10;54.20;;;;;;5110354;28;20023;-74
2023/07/13 02:17:29;;;;;;;7.85;4.82;;;28.10;54.20;;;;;;5110247;28;20067;-74
2023/07/13 02:19:55;;;;;;;9.70;5.00;;;28.00;54.30;;;;;;5111700;28;20063;-74
2023/07/13 02:22:22;;;;;;;5.18;4.68;;;28.00;54.30;;;;;;5110362;28;20043;-74
2023/07/13 02:24:48;;;;;;;5.55;4.57;;;28.00;54.30;;;;;;5110598;28;20036;-74
2023/07/13 02:27:16;;;;;;;8.18;4.43;;;28.00;54.30;;;;;;5129253;28;20082;-74
2023/07/13 02:29:42;;;;;;;4.05;3.65;;;28.00;54.30;;;;;;5129772;28;20071;-74
2023/07/13 02:32:08;;;;;;;5.07;3.95;;;28.00;54.30;;;;;;5112438;28;20047;-74
2023/07/13 02:34:34;;;;;;;6.40;4.50;;;28.00;54.30;;;;;;5112685;28;20485;-74
2023/07/13 02:37:00;;;;;;;6.50;4.35;;;27.90;53.90;;;;;;5129325;28;20129;-74
2023/07/13 02:39:26;;;;;;;7.63;3.80;;;28.00;54.40;;;;;;5129625;28;20039;-74
2023/07/13 02:41:53;;;;;;;7.50;4.20;;;28.00;54.40;;;;;;5112458;28;20046;-74
2023/07/13 02:44:19;;;;;;;8.00;3.88;;;28.00;54.40;;;;;;5129018;27;20076;-73
2023/07/13 02:46:45;;;;;;;3.95;3.28;;;27.90;53.90;;;;;;5113423;27;20066;-74
2023/07/13 02:49:11;;;;;;;4.82;3.92;;;27.90;53.80;;;;;;5133050;27;20028;-74
2023/07/13 02:51:37;;;;;;;5.20;3.85;;;27.90;53.90;;;;;;5133205;27;20035;-74
2023/07/13 02:54:04;;;;;;;6.50;3.60;;;27.90;54.00;;;;;;5115854;27;20077;-74
2023/07/13 02:56:32;;;;;;;4.93;4.22;;;27.90;54.00;;;;;;5115773;27;20039;-74
2023/07/13 02:58:58;;;;;;;4.32;3.78;;;28.00;54.60;;;;;;5132977;27;20065;-74
2023/07/13 03:01:25;;;;;;;4.82;4.03;;;28.00;54.70;;;;;;5115648;27;20483;-74
2023/07/13 03:03:52;;;;;;;6.50;4.00;;;27.90;54.20;;;;;;5074757;28;20051;-74
2023/07/13 03:06:19;;;;;;;6.75;4.72;;;28.00;54.70;;;;;;5091306;28;20048;-74
2023/07/13 03:08:51;;;;;;;8.77;5.28;;;28.00;54.70;;;;;;5091958;28;20051;-74
2023/07/13 03:11:19;;;;;;;6.18;4.90;;;28.00;54.80;;;;;;5091605;28;20479;-74
2023/07/13 03:13:50;;;;;;;5.80;4.55;;;28.00;54.80;;;;;;5075557;28;20106;-74
2023/07/13 03:16:16;;;;;;;7.20;5.45;;;28.00;54.80;;;;;;5091685;28;20044;-74
2023/07/13 03:18:45;;;;;;;10.65;5.65;;;28.00;54.80;;;;;;5091321;28;20036;-74
2023/07/13 03:21:12;;;;;;;9.40;5.00;;;28.10;54.90;;;;;;5091314;28;20040;-74
2023/07/13 03:23:39;;;;;;;5.78;5.00;;;28.10;54.80;;;;;;5074434;28;20154;-74
2023/07/13 03:26:18;;;;;;;6.40;5.18;;;28.10;54.90;;;;;;5091099;28;20071;-74
2023/07/13 03:28:44;;;;;;;6.68;5.50;;;28.00;54.80;;;;;;5091543;28;20062;-74
2023/07/13 03:31:18;;;;;;;5.88;4.32;;;28.10;54.80;;;;;;5091581;28;20036;-74
2023/07/13 03:33:45;;;;;;;5.05;3.90;;;28.20;54.90;;;;;;5092591;28;20032;-74
2023/07/13 03:36:19;;;;;;;7.03;4.75;;;28.20;54.80;;;;;;5111202;28;20090;-74
2023/07/13 03:38:50;;;;;;;5.45;4.45;;;28.10;54.80;;;;;;5094711;28;20044;-74
2023/07/13 03:41:18;;;;;;;6.00;5.03;;;28.20;54.80;;;;;;5078099;28;20036;-74
2023/07/13 03:43:44;;;;;;;3.90;3.13;;;28.20;54.80;;;;;;5094402;28;20036;-69
2023/07/13 03:46:11;;;;;;;2.45;2.25;;;28.20;54.80;;;;;;5110990;28;20383;-69
2023/07/13 03:48:39;;;;;;;4.25;3.83;;;28.20;54.70;;;;;;5094096;28;20036;-69
2023/07/13 03:51:05;;;;;;;4.88;3.60;;;28.20;54.70;;;;;;5077085;28;20040;-69
2023/07/13 03:53:31;;;;;;;5.45;3.60;;;28.10;54.70;;;;;;5077073;28;20028;-68
2023/07/13 03:55:58;;;;;;;5.53;4.05;;;28.20;54.80;;;;;;5094067;28;20054;-69
2023/07/13 03:58:36;;;;;;;4.65;3.40;;;28.20;54.80;;;;;;5093786;28;20085;-69
2023/07/13 04:01:11;;;;;;;4.95;3.70;;;28.20;54.80;;;;;;5093903;28;20546;-70
2023/07/13 04:03:38;;;;;;;6.10;4.05;;;28.30;54.80;;;;;;5077187;28;20043;-73
2023/07/13 04:06:14;;;;;;;5.22;4.13;;;28.20;54.80;;;;;;5111000;28;20146;-76
2023/07/13 04:08:41;;;;;;;6.20;4.13;;;28.20;57.20;;;;;;5112457;28;20100;-72
2023/07/13 04:11:07;;;;;;;4.55;4.07;;;28.60;59.50;;;;;;5112530;28;20028;-75
2023/07/13 04:13:33;;;;;;;5.25;4.57;;;28.90;59.90;;;;;;5113460;28;20040;-73
2023/07/13 04:15:59;;;;;;;7.72;4.43;;;29.10;63.40;;;;;;5095634;28;20039;-71
2023/07/13 04:18:25;;;;;;;7.72;4.43;;;29.10;57.60;;;;;;5111961;28;20092;-74
2023/07/13 04:20:51;;;;;;;6.88;4.88;;;29.00;57.10;;;;;;5113483;27;20585;-73
2023/07/13 04:23:18;;;;;;;8.57;4.43;;;28.90;56.20;;;;;;5113380;28;20031;-75
2023/07/13 04:25:52;;;;;;;5.05;4.40;;;28.80;56.00;;;;;;5113049;28;20483;-74
2023/07/13 04:28:20;;;;;;;4.10;3.70;;;28.80;56.00;;;;;;5112639;28;20483;-73
2023/07/13 04:30:46;;;;;;;5.28;3.97;;;28.80;56.20;;;;;;5112927;28;20031;-72
2023/07/13 04:33:12;;;;;;;5.47;4.15;;;28.70;56.20;;;;;;5113026;28;20046;-74
2023/07/13 04:35:39;;;;;;;4.82;3.55;;;28.70;56.30;;;;;;5112618;28;20041;-74
2023/07/13 04:38:05;;;;;;;4.60;4.03;;;28.80;56.20;;;;;;5112759;28;20067;-73
2023/07/13 04:40:31;;;;;;;3.90;3.55;;;28.80;56.30;;;;;;5111132;28;20776;-74
2023/07/13 04:42:57;;;;;;;4.28;3.65;;;28.60;56.30;;;;;;5111531;28;20048;-73
2023/07/13 04:45:24;;;;;;;5.15;3.53;;;28.80;56.50;;;;;;5112585;28;20138;-72
2023/07/13 04:47:50;;;;;;;4.82;3.88;;;28.80;56.60;;;;;;5113041;28;20032;-72
2023/07/13 04:50:20;;;;;;;4.57;3.38;;;28.70;56.50;;;;;;5112934;28;20476;-71
2023/07/13 04:52:47;;;;;;;5.30;3.70;;;28.70;56.50;;;;;;5112570;28;20031;-71
2023/07/13 04:55:13;;;;;;;4.72;3.92;;;28.70;56.40;;;;;;5112761;28;20035;-71
2023/07/13 04:57:39;;;;;;;5.82;3.92;;;29.00;56.10;;;;;;5112415;28;20023;-71
2023/07/13 05:00:07;;;;;;;4.75;3.80;;;28.70;55.00;;;;;;5112285;28;20379;-72
2023/07/13 05:02:34;;;;;;;6.47;4.03;;;28.60;54.30;;;;;;5112458;28;20020;-73
2023/07/13 05:05:00;;;;;;;5.85;4.22;;;28.60;54.50;;;;;;5112782;28;20071;-74
2023/07/13 05:07:26;;;;;;;6.88;4.50;;;28.80;57.80;;;;;;5112480;28;20059;-73
2023/07/13 05:09:53;;;;;;;7.65;4.57;;;28.90;58.10;;;;;;5111890;28;20118;-72
2023/07/13 05:12:19;;;;;;;9.07;4.57;;;28.80;55.80;;;;;;5112391;28;20070;-72
2023/07/13 05:14:45;;;;;;;6.53;4.43;;;29.00;56.20;;;;;;5111561;28;20036;-71
2023/07/13 05:17:11;;;;;;;5.85;4.60;;;29.00;56.50;;;;;;5113028;28;20107;-74
2023/07/13 05:19:37;;;;;;;4.95;4.30;;;28.90;56.60;;;;;;5113029;28;20125;-71
2023/07/13 05:22:03;;;;;;;5.32;4.43;;;28.80;55.40;;;;;;5112514;28;20140;-70
2023/07/13 05:24:30;;;;;;;6.47;4.85;;;28.80;55.70;;;;;;5109755;28;20040;-72
2023/07/13 05:26:56;;;;;;;7.32;4.25;;;28.80;55.40;;;;;;5112637;28;20039;-71
2023/07/13 05:29:23;;;;;;;5.70;4.18;;;28.90;55.80;;;;;;5112308;28;20146;-72
2023/07/13 05:31:49;;;;;;;5.93;4.07;;;28.80;56.90;;;;;;5112563;28;20035;-70
2023/07/13 05:34:15;;;;;;;7.80;4.38;;;28.90;56.80;;;;;;5110749;28;20039;-72
2023/07/13 05:36:42;;;;;;;5.93;4.45;;;28.90;56.10;;;;;;5111888;28;20115;-72
2023/07/13 05:39:08;;;;;;;5.10;3.92;;;28.90;56.80;;;;;;5111022;28;20449;-74
2023/07/13 05:41:35;;;;;;;5.30;4.20;;;28.90;56.30;;;;;;5112302;28;20024;-76
2023/07/13 05:44:01;;;;;;;7.40;4.40;;;28.90;56.20;;;;;;5129790;28;20035;-74
2023/07/13 05:46:27;;;;;;;5.63;4.45;;;28.90;57.30;;;;;;5129525;28;20470;-73
2023/07/13 05:48:53;;;;;;;6.65;4.07;;;28.90;56.70;;;;;;5129485;28;20547;-73
2023/07/13 05:51:19;;;;;;;5.25;4.05;;;28.90;55.60;;;;;;5129543;28;20083;-71
2023/07/13 05:53:45;;;;;;;7.07;5.43;;;28.90;54.90;;;;;;5129828;28;20641;-73
2023/07/13 05:56:11;;;;;;;5.97;4.07;;;28.90;55.20;;;;;;5129729;28;20036;-73
2023/07/13 05:58:37;;;;;;;8.98;4.40;;;28.90;55.40;;;;;;5130366;28;20047;-74
2023/07/13 06:01:10;;;;;;;8.38;4.50;;;28.80;55.40;;;;;;5130225;28;20035;-74
2023/07/13 06:03:37;;;;;;;5.57;4.78;;;29.00;55.70;;;;;;5129754;28;20043;-73
2023/07/13 06:06:08;;;;;;;7.13;4.20;;;29.00;55.80;;;;;;5129213;28;20035;-72
2023/07/13 06:08:35;;;;;;;5.93;4.72;;;29.00;55.80;;;;;;5129211;28;20055;-72
2023/07/13 06:11:13;;;;;;;8.40;5.03;;;28.90;55.00;;;;;;5129825;28;20027;-72
2023/07/13 06:13:39;;;;;;;8.23;5.15;;;28.90;54.70;;;;;;5120304;28;20031;-72
2023/07/13 06:16:06;;;;;;;8.27;5.50;;;28.90;54.70;;;;;;5112211;28;20483;-72
2023/07/13 06:18:33;;;;;;;8.10;5.35;;;28.80;54.70;;;;;;5111139;28;20039;-72
2023/07/13 06:20:59;;;;;;;7.28;4.75;;;28.80;54.90;;;;;;5103093;28;20476;-73
2023/07/13 06:23:25;;;;;;;7.93;4.88;;;28.80;54.50;;;;;;5114847;28;20104;-74
2023/07/13 06:25:51;;;;;;;9.48;5.40;;;28.90;54.20;;;;;;5114815;28;20122;-72
2023/07/13 06:28:18;;;;;;;9.15;4.00;;;28.80;55.00;;;;;;5114398;28;20439;-73
2023/07/13 06:30:44;;;;;;;4.82;4.05;;;28.70;56.00;;;;;;5114702;28;20023;-75
2023/07/13 06:33:10;;;;;;;7.78;5.40;;;29.20;56.10;;;;;;5114840;28;20028;-73
2023/07/13 06:35:36;;;;;;;9.93;5.97;;;29.40;58.10;;;;;;5114672;28;20149;-73
2023/07/13 06:38:02;;;;;;;5.57;4.97;;;29.60;57.10;;;;;;5114339;28;20040;-73
2023/07/13 06:40:30;;;;;;;11.85;6.78;;;29.70;54.70;;;;;;5112110;28;20030;-74
2023/07/13 06:42:56;;;;;;;9.40;5.35;;;29.50;54.50;;;;;;5114511;28;20026;-72
2023/07/13 06:45:22;;;;;;;7.00;5.55;;;29.50;54.50;;;;;;5112802;28;20529;-72
2023/07/13 06:47:49;;;;;;;10.57;5.55;;;29.40;55.00;;;;;;5114165;28;20035;-71
2023/07/13 06:50:15;;;;;;;6.72;4.95;;;29.30;54.80;;;;;;5113992;28;20440;-72
2023/07/13 06:52:41;;;;;;;6.25;5.13;;;29.30;57.30;;;;;;5126651;27;20042;-73
2023/07/13 06:55:08;;;;;;;6.88;5.32;;;29.60;57.30;;;;;;5129540;27;20066;-73
2023/07/13 06:57:34;;;;;;;10.15;5.75;;;29.70;57.10;;;;;;5124472;27;20571;-73
2023/07/13 07:00:00;;;;;;;9.02;7.88;;;29.90;57.90;;;;;;5115838;27;20066;-73
2023/07/13 07:02:26;;;;;;;10.40;7.30;;;30.20;65.80;;;;;;5132428;27;20187;-73
2023/07/13 07:04:54;;;;;;;10.00;7.43;;;30.30;60.60;;;;;;5132862;27;20529;-71
2023/07/13 07:07:20;;;;;;;13.50;8.35;;;30.20;58.00;;;;;;5132104;27;20073;-72
2023/07/13 07:09:46;;;;;;;10.27;7.38;;;30.20;62.00;;;;;;5132681;27;20039;-72
2023/07/13 07:12:12;;;;;;;8.65;7.07;;;30.30;58.20;;;;;;5114694;27;20419;-73
2023/07/13 07:14:38;;;;;;;12.10;7.47;;;30.40;59.30;;;;;;5132494;27;20174;-72
2023/07/13 07:17:04;;;;;;;15.15;9.10;;;30.30;58.90;;;;;;5115287;27;20031;-74
2023/07/13 07:19:30;;;;;;;14.57;8.68;;;30.50;57.50;;;;;;5132532;27;20078;-73
2023/07/13 07:21:56;;;;;;;10.68;6.68;;;30.50;58.70;;;;;;5131878;27;20593;-71
2023/07/13 07:24:22;;;;;;;15.63;7.97;;;30.50;59.80;;;;;;5117714;27;20122;-72
2023/07/13 07:26:48;;;;;;;12.43;7.90;;;30.70;57.80;;;;;;5113572;28;20058;-69
2023/07/13 07:29:14;;;;;;;10.25;6.80;;;30.60;58.10;;;;;;5111962;28;20601;-71
2023/07/13 07:31:40;;;;;;;10.40;7.10;;;30.80;59.10;;;;;;5112408;28;20042;-72
2023/07/13 07:34:06;;;;;;;11.38;8.90;;;30.70;54.60;;;;;;5112912;28;20038;-71
2023/07/13 07:36:32;;;;;;;8.70;6.95;;;30.90;60.90;;;;;;5113571;28;20024;-72
2023/07/13 07:38:58;;;;;;;9.98;6.57;;;31.00;57.00;;;;;;5112018;28;20032;-72
2023/07/13 07:41:24;;;;;;;10.05;7.05;;;30.90;55.30;;;;;;5112616;28;20057;-71
2023/07/13 07:43:50;;;;;;;10.25;7.03;;;30.90;56.50;;;;;;5113966;28;20023;-70
2023/07/13 07:46:16;;;;;;;8.15;6.93;;;31.00;58.20;;;;;;5113793;28;20388;-71
2023/07/13 07:48:42;;;;;;;10.52;7.55;;;31.00;56.50;;;;;;5113443;28;20042;-72
2023/07/13 07:51:08;;;;;;;11.45;7.75;;;31.10;56.90;;;;;;5113940;28;20035;-72
2023/07/13 07:53:34;;;;;;;8.02;6.72;;;31.00;57.50;;;;;;5113577;28;20084;-71
2023/07/13 07:56:00;;;;;;;10.35;7.18;;;30.90;57.20;;;;;;5113662;28;20069;-71
2023/07/13 07:58:26;;;;;;;10.80;7.10;;;31.10;57.80;;;;;;5112115;28;20039;-71
2023/07/13 08:00:52;;;;;;;9.60;5.85;;;31.00;58.90;;;;;;5113481;28;20385;-72
2023/07/13 08:03:18;;;;;;;7.43;6.45;;;31.20;58.60;;;;;;5113466;28;20175;-72
2023/07/13 08:05:44;;;;;;;14.82;6.32;;;31.10;57.00;;;;;;5114013;28;20054;-72
2023/07/13 08:08:09;;;;;;;12.88;6.35;;;30.90;54.00;;;;;;5113910;28;20236;-72
2023/07/13 08:10:37;;;;;;;19.33;7.95;;;31.10;54.70;;;;;;5113308;28;20130;-73
2023/07/13 08:13:03;;;;;;;12.38;6.63;;;31.00;56.60;;;;;;5113040;28;20516;-70
2023/07/13 08:15:29;;;;;;;14.90;7.70;;;31.10;56.80;;;;;;5113262;28;20114;-72
2023/07/13 08:17:55;;;;;;;6.43;5.63;;;31.10;59.60;;;;;;5113338;28;20471;-72
2023/07/13 08:20:21;;;;;;;7.97;5.75;;;31.00;57.00;;;;;;5111758;28;20034;-71
2023/07/13 08:22:47;;;;;;;6.22;5.20;;;31.00;54.70;;;;;;5112979;28;20023;-70
2023/07/13 08:25:13;;;;;;;7.05;4.45;;;31.00;54.70;;;;;;5112743;28;20052;-70
2023/07/13 08:27:39;;;;;;;6.47;4.63;;;31.00;55.00;;;;;;5112455;28;20027;-68
2023/07/13 08:30:07;;;;;;;8.43;5.18;;;30.90;55.20;;;;;;5112213;28;20038;-70
2023/07/13 08:32:33;;;;;;;8.68;5.07;;;31.00;58.40;;;;;;5111627;28;20043;-71
2023/07/13 08:34:59;;;;;;;9.57;5.30;;;31.00;59.50;;;;;;5112658;28;20027;-72
2023/07/13 08:37:25;;;;;;;8.52;5.72;;;31.00;58.70;;;;;;5113213;28;20054;-71
2023/07/13 08:39:51;;;;;;;9.90;6.60;;;30.90;56.40;;;;;;5112620;28;20024;-73
2023/07/13 08:42:39;;;;;;;6.43;5.78;;;30.90;62.50;;;;;;5112632;28;20065;-73
2023/07/13 08:45:19;;;;;;;8.18;5.25;;;31.00;55.90;;;;;;5110214;28;20055;-71
2023/07/13 08:48:02;;;;;;;8.05;6.00;;;30.90;54.90;;;;;;5112845;28;20035;-71
2023/07/13 08:50:35;;;;;;;7.00;6.30;;;30.90;55.90;;;;;;5112397;28;20114;-72
2023/07/13 08:53:03;;;;;;;7.68;5.50;;;30.80;55.20;;;;;;5112660;28;20063;-71
2023/07/13 08:55:36;;;;;;;8.38;5.75;;;30.60;54.60;;;;;;5111880;28;20032;-71
2023/07/13 08:58:06;;;;;;;;;;;30.80;61.80;;;;;;5131046;27;20407;-75
2023/07/13 09:00:50;;;;;;;7.07;5.80;;;30.70;60.60;;;;;;5130265;27;19911;-73
2023/07/13 09:03:24;;;;;;;5.97;4.57;;;30.70;56.70;;;;;;5130336;27;20352;-72
2023/07/13 09:05:56;;;;;;;14.25;5.40;;;30.60;55.70;;;;;;5130278;27;20057;-73
2023/07/13 09:08:42;;;;;;;5.97;5.10;;;30.60;55.00;;;;;;5129792;27;20086;-72
2023/07/13 09:11:23;;;;;;;10.95;5.20;;;30.50;54.60;;;;;;5130363;27;20055;-74
2023/07/13 09:14:01;;;;;;;6.05;4.45;;;30.80;53.70;;;;;;5130572;27;20081;-76
2023/07/13 09:16:27;;;;;;;7.82;4.90;;;30.70;54.00;;;;;;5129920;27;20031;-74
2023/07/13 09:19:07;;;;;;;7.95;4.70;;;30.60;54.20;;;;;;5130217;27;20055;-75
2023/07/13 09:21:39;;;;;;;7.15;4.45;;;30.80;54.50;;;;;;5129920;27;20035;-77
2023/07/13 09:24:43;;;;;;;6.15;4.80;;;30.70;54.50;;;;;;5130073;27;20071;-74
2023/07/13 09:27:19;;;;;;;4.18;3.78;;;30.60;54.60;;;;;;5129919;27;20043;-75
2023/07/13 09:29:57;;;;;;;6.18;5.47;;;30.50;54.50;;;;;;5076546;28;20630;-74
2023/07/13 09:32:26;;;;;;;5.32;4.78;;;30.50;54.50;;;;;;5087405;28;20036;-75
2023/07/13 09:34:54;;;;;;;6.28;4.43;;;30.50;54.50;;;;;;5055201;28;20040;-73
2023/07/13 09:37:31;;;;;;;7.00;4.82;;;30.50;54.40;;;;;;5088774;28;20096;-74
2023/07/13 09:39:59;;;;;;;10.27;4.85;;;30.50;54.80;;;;;;5088849;28;20722;-73
2023/07/13 09:42:26;;;;;;;7.43;4.63;;;30.40;55.30;;;;;;5088685;28;20183;-74
2023/07/13 09:44:54;;;;;;;6.85;5.25;;;30.50;55.40;;;;;;5088548;28;20381;-73
2023/07/13 09:47:32;;;;;;;5.78;4.93;;;30.40;55.30;;;;;;5088619;28;20092;-75
2023/07/13 09:50:04;;;;;;;6.85;5.00;;;30.40;55.30;;;;;;5088758;28;20415;-72
2023/07/13 09:52:45;;;;;;;6.90;4.28;;;30.50;55.50;;;;;;5088932;28;20610;-75
2023/07/13 09:55:30;;;;;;;5.63;4.72;;;30.30;55.40;;;;;;5088927;28;20075;-73
2023/07/13 09:57:56;;;;;;;7.28;4.30;;;30.30;55.50;;;;;;5076008;28;20563;-74
2023/07/13 10:00:28;;;;;;;6.15;4.43;;;30.30;55.80;;;;;;5100071;28;20043;-74
2023/07/13 10:03:03;;;;;;;6.25;4.15;;;30.30;55.60;;;;;;5115813;28;20036;-73
2023/07/13 10:05:39;;;;;;;4.40;4.00;;;30.30;55.30;;;;;;5114210;28;20441;-73
2023/07/13 10:08:07;;;;;;;7.70;4.40;;;30.30;55.10;;;;;;5114604;28;20490;-74
2023/07/13 10:10:35;;;;;;;5.15;4.25;;;30.30;55.10;;;;;;5097351;28;20035;-73
2023/07/13 10:13:04;;;;;;;5.35;3.95;;;30.20;55.20;;;;;;5097673;28;20054;-72
2023/07/13 10:15:30;;;;;;;4.35;3.95;;;30.20;56.00;;;;;;5114269;28;20046;-71
2023/07/13 10:17:57;;;;;;;4.68;3.92;;;30.20;57.50;;;;;;5115575;28;20039;-73
2023/07/13 10:20:26;;;;;;;4.97;4.47;;;30.10;56.50;;;;;;5115034;28;20038;-71
2023/07/13 10:23:15;;;;;;;6.10;4.65;;;30.10;57.40;;;;;;5115389;28;20040;-72
2023/07/13 10:25:44;;;;;;;7.47;4.32;;;30.20;58.70;;;;;;5113923;28;20042;-72
2023/07/13 10:28:10;;;;;;;8.43;4.43;;;30.10;58.80;;;;;;5113942;28;20035;-72
2023/07/13 10:30:40;;;;;;;4.45;3.92;;;29.90;58.20;;;;;;5114705;28;20395;-72
2023/07/13 10:33:14;;;;;;;5.25;4.45;;;29.90;57.10;;;;;;5115159;28;20035;-73
2023/07/13 10:35:43;;;;;;;4.70;4.15;;;30.10;57.20;;;;;;5115327;28;20472;-71
2023/07/13 10:38:23;;;;;;;5.95;4.40;;;30.10;57.00;;;;;;5115104;28;20031;-75
2023/07/13 10:41:03;;;;;;;5.00;4.57;;;29.90;56.20;;;;;;5114922;27;20103;-72
2023/07/13 10:43:42;;;;;;;7.50;4.47;;;29.90;56.20;;;;;;5114936;28;20479;-71
2023/07/13 10:46:12;;;;;;;7.10;4.15;;;29.90;56.30;;;;;;5114611;28;20070;-73
2023/07/13 10:48:39;;;;;;;9.68;5.25;;;29.80;56.20;;;;;;5115066;27;20039;-72
2023/07/13 10:51:07;;;;;;;6.28;4.68;;;29.90;56.20;;;;;;5114511;28;20046;-72
2023/07/13 10:53:39;;;;;;;5.40;4.15;;;29.80;56.30;;;;;;5114794;28;20050;-75
2023/07/13 10:56:30;;;;;;;4.97;4.30;;;29.90;56.40;;;;;;5114718;28;20104;-75
2023/07/13 10:59:17;;;;;;;5.43;4.20;;;29.90;56.30;;;;;;5114907;28;20028;-76
2023/07/13 11:01:54;;;;;;;4.95;4.45;;;29.80;56.40;;;;;;5115017;28;20039;-72
2023/07/13 11:04:22;;;;;;;5.55;3.13;;;29.80;56.60;;;;;;5113108;28;20043;-74
2023/07/13 11:06:50;;;;;;;5.07;3.88;;;30.00;60.70;;;;;;5114186;28;20417;-76
2023/07/13 11:09:32;;;;;;;61.10;35.53;;;30.20;59.70;;;;;;5112950;28;20031;-75
2023/07/13 11:12:06;;;;;;;15.02;9.70;;;30.30;59.50;;;;;;5113554;28;20035;-74
2023/07/13 11:14:55;;;;;;;6.53;5.78;;;30.10;58.20;;;;;;5114426;28;20118;-75
2023/07/13 11:17:31;;;;;;;6.95;5.00;;;30.10;57.80;;;;;;5113060;28;20181;-73
2023/07/13 11:20:23;;;;;;;6.38;4.65;;;30.00;57.50;;;;;;5112739;28;20406;-76
2023/07/13 11:23:08;;;;;;;6.38;4.30;;;30.00;57.30;;;;;;5114071;28;20059;-75
2023/07/13 11:25:37;;;;;;;8.10;5.10;;;30.00;57.20;;;;;;5114249;28;20036;-74
2023/07/13 11:28:12;;;;;;;7.53;4.22;;;29.90;56.80;;;;;;5112704;28;20028;-74
2023/07/13 11:30:39;;;;;;;5.07;4.55;;;29.90;56.50;;;;;;5113877;28;20023;-73
2023/07/13 11:33:20;;;;;;;6.72;4.55;;;29.90;56.70;;;;;;5112533;28;20100;-76
2023/07/13 11:36:04;;;;;;;5.95;4.85;;;29.80;57.00;;;;;;5112901;28;20116;-76
2023/07/13 11:38:41;;;;;;;6.30;5.35;;;29.80;57.10;;;;;;5113904;28;20028;-75
2023/07/13 11:41:19;;;;;;;5.97;4.22;;;29.90;57.20;;;;;;5112071;28;20108;-74
2023/07/13 11:43:49;;;;;;;7.65;4.50;;;29.90;57.20;;;;;;5113502;28;20019;-75
2023/07/13 11:46:20;;;;;;;7.20;4.68;;;29.90;57.10;;;;;;5095432;28;20059;-74
2023/07/13 11:48:47;;;;;;;5.40;3.70;;;29.70;57.10;;;;;;5113927;27;20031;-74
2023/07/13 11:51:35;;;;;;;5.68;3.83;;;29.90;57.10;;;;;;5112284;28;20028;-74
2023/07/13 11:54:14;;;;;;;4.82;4.00;;;29.70;57.20;;;;;;5113437;28;20106;-75
2023/07/13 11:56:41;;;;;;;11.23;5.32;;;29.80;57.20;;;;;;5113531;28;20032;-74
2023/07/13 11:59:12;;;;;;;4.93;4.20;;;29.60;57.20;;;;;;5113455;28;20031;-73
2023/07/13 12:01:44;;;;;;;6.30;5.27;;;29.90;57.30;;;;;;5112951;28;20037;-71
2023/07/13 12:04:22;;;;;;;5.07;3.83;;;29.70;57.30;;;;;;5113475;28;20044;-72
2023/07/13 12:06:58;;;;;;;8.48;3.88;;;29.80;57.20;;;;;;5111693;28;20059;-73
2023/07/13 12:09:27;;;;;;;5.35;3.85;;;29.70;57.20;;;;;;5111969;28;20410;-74
2023/07/13 12:11:53;;;;;;;7.55;4.57;;;29.80;57.20;;;;;;5113041;28;20091;-74
2023/07/13 12:14:20;;;;;;;6.20;4.30;;;29.70;57.30;;;;;;5111757;28;20099;-73
2023/07/13 12:16:48;;;;;;;4.30;3.88;;;29.70;57.30;;;;;;5111422;28;20563;-71
2023/07/13 12:19:23;;;;;;;4.05;3.53;;;29.50;57.40;;;;;;5130697;27;20111;-73
2023/07/13 12:21:50;;;;;;;7.65;4.63;;;29.50;57.50;;;;;;5110153;28;20058;-73
2023/07/13 12:24:19;;;;;;;6.43;4.00;;;29.70;57.50;;;;;;5093172;28;20051;-73
2023/07/13 12:26:51;;;;;;;5.85;2.08;;;29.60;57.50;;;;;;5110057;28;20059;-73
2023/07/13 12:29:17;;;;;;;;;;;29.60;57.60;;;;;;5110878;28;20052;-74
2023/07/13 12:31:46;;;;;;;5.03;3.53;;;29.50;57.90;;;;;;5110197;28;20010;-72
2023/07/13 12:34:21;;;;;;;4.15;2.33;;;29.60;58.40;;;;;;5110154;28;20395;-76
2023/07/13 12:36:48;;;;;;;3.75;2.20;;;29.70;58.10;;;;;;5110227;28;20118;-73
2023/07/13 12:39:18;;;;;;;3.05;2.08;;;29.50;57.80;;;;;;5110028;28;20044;-73
2023/07/13 12:41:45;;;;;;;4.78;2.33;;;29.60;57.40;;;;;;5109888;28;20535;-78
2023/07/13 12:44:14;;;;;;;2.85;1.25;;;29.60;57.10;;;;;;5109858;28;20047;-77
2023/07/13 12:46:51;;;;;;;4.45;1.75;;;29.60;56.90;;;;;;5092666;28;20052;-76
2023/07/13 12:49:18;;;;;;;5.57;1.75;;;29.60;56.80;;;;;;5107895;28;20065;-77
2023/07/13 12:51:44;;;;;;;5.65;3.10;;;29.60;56.70;;;;;;5091609;28;20055;-75
2023/07/13 12:54:18;;;;;;;5.03;2.70;;;29.40;56.80;;;;;;5091616;28;20452;-74
2023/07/13 12:56:45;;;;;;;1.13;1.10;;;29.40;56.90;;;;;;5091608;28;20032;-73